Terminal Aerodrome Forecast
Issued by NWS Knoxville/Tri Cities, TN

Home | Current Version | Previous Version | Text Only | Print | Product List | Glossary On
Versions: 1 2 3 4 5 6 7 8 9 10 11 12 13 14
000
FTUS44 KMRX 181726
TAFCHA
TAF
KCHA 181726Z 1818/1918 VRB03KT P6SM SCT150
     FM182100 12006KT P6SM SCT050 BKN150
     FM190100 16008KT 4SM -SHRA OVC025
     FM190600 16007KT P6SM OVC015
     FM191600 17007KT P6SM BKN025=

USA.gov is the U.S. government's official web portal to all federal, state and local government web resources and services.